Terminal Aerodrome Forecast
Issued by NWS

Current Version | Previous Version | Text Only | Print | Product List | Glossary On
Versions: 1 2 3 4 5 6 7 8 9 10 11 12 13
000
FTUS42 KTBW 042337
TAFPIE
TAF
KPIE 042337Z 0500/0524 08012G22KT P6SM FEW040 SCT080 SCT250
     FM050300 07011KT P6SM SCT050 SCT250
     FM051400 07014KT P6SM SCT050 BKN250
     FM051800 08009G19KT P6SM VCSH SCT030 BKN050=

USA.gov is the U.S. government's official web portal to all federal, state and local government web resources and services.